Terminal Aerodrome Forecast
Issued by NWS Burlington, VT

Home | Current Version | Previous Version | Text Only | Print | Product List | Glossary On
Versions: 1 2 3 4 5 6 7 8 9 10 11 12
431
FTUS41 KBTV 271729
TAFBTV
TAF
KBTV 271729Z 2718/2818 20008G16KT P6SM SCT060
     FM272300 15004KT P6SM SCT060
     FM280500 08004KT P6SM VCFG FEW060
     FM281200 11005KT P6SM BKN070
     FM281500 22006KT P6SM SCT080=

USA.gov is the U.S. government's official web portal to all federal, state and local government web resources and services.